Time;durP1;ratioP1;P1;durP2;ratioP2;P2;SDS_P1;SDS_P2;PMS_P1;PMS_P2;Temp;Humidity;BMP_temperature;BMP_pressure;BME280_temperature;BME280_humidity;BME280_pressure;Samples;Min_cycle;Max_cycle;Signal;HPM_P1;HPM_P2
2024/01/30 07:28:53;;;;;;;14.80;5.38;;;;;;;;;;2088949;28;20576;-65
2024/01/30 07:54:26;;;;;;;21.25;11.32;;;;;;;;;;2089246;28;21065;-64
2024/01/30 07:56:24;;;;;;;21.10;11.98;;;;;;;;;;2084159;28;20552;-64
2024/01/30 07:57:25;;;;;;;24.05;11.85;;;;;;;;;;2077511;28;20641;-65
2024/01/30 07:58:27;;;;;;;18.08;10.40;;;;;;;;;;2071863;28;20574;-65
2024/01/30 07:59:28;;;;;;;16.13;9.18;;;;;;;;;;2073258;28;20859;-65
2024/01/30 08:00:30;;;;;;;18.08;7.70;;;;;;;;;;2072648;28;20237;-65
2024/01/30 08:01:31;;;;;;;14.23;6.35;;;;;;;;;;2071995;28;20205;-65
2024/01/30 08:02:33;;;;;;;15.68;6.10;;;;;;;;;;2071348;28;20232;-64
2024/01/30 08:03:34;;;;;;;14.07;6.70;;;;;;;;;;2070287;28;21056;-64
2024/01/30 08:04:35;;;;;;;12.13;6.65;;;;;;;;;;2072122;28;20189;-64
2024/01/30 08:05:39;;;;;;;12.52;6.60;;;;;;;;;;2073205;28;20193;-64
2024/01/30 08:06:40;;;;;;;11.68;6.97;;;;;;;;;;2071840;28;20243;-64
2024/01/30 08:07:45;;;;;;;11.98;6.18;;;;;;;;;;2079240;28;20609;-64
2024/01/30 08:08:47;;;;;;;14.45;7.03;;;;;;;;;;2080234;28;20281;-64
2024/01/30 08:09:48;;;;;;;12.80;6.43;;;;;;;;;;2074030;28;20747;-64
2024/01/30 08:10:50;;;;;;;15.38;7.50;;;;;;;;;;2073529;28;20605;-64
2024/01/30 08:11:51;;;;;;;11.88;6.82;;;;;;;;;;2074252;28;20232;-63
2024/01/30 08:12:52;;;;;;;23.52;12.60;;;;;;;;;;2069521;28;20217;-64
2024/01/30 08:13:54;;;;;;;61.88;27.30;;;;;;;;;;2070639;28;20286;-63
2024/01/30 08:14:55;;;;;;;103.72;43.90;;;;;;;;;;2073763;28;20557;-63
2024/01/30 08:15:56;;;;;;;51.28;23.92;;;;;;;;;;2073602;28;20226;-63
2024/01/30 08:16:58;;;;;;;21.88;10.32;;;;;;;;;;2070231;28;20205;-63
2024/01/30 08:17:59;;;;;;;36.10;18.05;;;;;;;;;;2069781;28;20224;-63
2024/01/30 08:19:01;;;;;;;60.58;28.30;;;;;;;;;;2070177;28;20226;-63
2024/01/30 08:20:04;;;;;;;50.55;24.10;;;;;;;;;;2070195;28;20189;-63
2024/01/30 08:21:06;;;;;;;35.45;20.55;;;;;;;;;;2072881;28;20815;-63
2024/01/30 08:22:07;;;;;;;19.98;11.45;;;;;;;;;;2072699;28;20189;-63
2024/01/30 08:24:07;;;;;;;15.30;7.85;;;;;;;;;;2098738;27;21251;-62
2024/01/30 08:25:09;;;;;;;22.77;9.30;;;;;;;;;;2092483;28;20223;-62
2024/01/30 08:26:11;;;;;;;14.20;8.07;;;;;;;;;;2094703;28;20227;-61
2024/01/30 08:27:12;;;;;;;14.85;8.45;;;;;;;;;;2096423;28;20264;-62
2024/01/30 08:28:14;;;;;;;14.98;8.52;;;;;;;;;;2084744;28;20211;-62
2024/01/30 08:29:18;;;;;;;19.02;8.98;;;;;;;;;;2085185;28;20269;-61
2024/01/30 08:30:19;;;;;;;20.30;9.57;;;;;;;;;;2087878;28;20227;-61
2024/01/30 08:31:21;;;;;;;16.88;8.95;;;;;;;;;;2088770;28;20411;-61
2024/01/30 08:32:23;;;;;;;14.10;8.00;;;;;;;;;;2090581;28;20279;-61
2024/01/30 08:33:25;;;;;;;16.25;7.50;;;;;;;;;;2086801;28;20220;-61
2024/01/30 08:34:27;;;;;;;16.13;8.52;;;;;;;;;;2087429;28;20736;-61
2024/01/30 08:35:31;;;;;;;16.35;8.88;;;;;;;;;;2091359;28;20679;-61
2024/01/30 08:36:33;;;;;;;17.38;7.30;;;;;;;;;;2083700;28;20299;-62
2024/01/30 08:37:34;;;;;;;17.63;8.00;;;;;;;;;;2084306;28;20188;-62
2024/01/30 08:38:36;;;;;;;17.50;8.20;;;;;;;;;;2088051;28;20205;-61
2024/01/30 08:39:38;;;;;;;15.68;7.80;;;;;;;;;;2089360;28;20188;-61
2024/01/30 08:40:39;;;;;;;19.90;8.40;;;;;;;;;;2088561;28;20249;-61
2024/01/30 08:41:41;;;;;;;16.77;9.40;;;;;;;;;;2084419;28;20204;-62
2024/01/30 08:42:42;;;;;;;20.20;10.82;;;;;;;;;;2086113;28;20224;-62
2024/01/30 08:43:44;;;;;;;16.48;8.73;;;;;;;;;;2087737;28;20291;-61
2024/01/30 08:44:46;;;;;;;28.65;10.63;;;;;;;;;;2088552;28;20180;-62
2024/01/30 08:45:47;;;;;;;21.40;11.38;;;;;;;;;;2088609;28;20551;-61
2024/01/30 08:46:49;;;;;;;18.35;10.48;;;;;;;;;;2088532;28;20193;-61
2024/01/30 08:47:51;;;;;;;18.17;9.57;;;;;;;;;;2089203;28;20224;-61
2024/01/30 08:48:53;;;;;;;18.35;9.43;;;;;;;;;;2088222;28;20491;-61
2024/01/30 08:49:54;;;;;;;17.45;10.45;;;;;;;;;;2090797;28;20188;-62
2024/01/30 08:50:56;;;;;;;19.95;10.10;;;;;;;;;;2089050;28;20193;-62
2024/01/30 08:51:57;;;;;;;22.70;10.02;;;;;;;;;;2087589;28;20730;-62
2024/01/30 08:52:59;;;;;;;24.33;10.10;;;;;;;;;;2085475;28;20430;-61
2024/01/30 08:54:01;;;;;;;16.50;8.75;;;;;;;;;;2086890;28;20302;-62
2024/01/30 08:55:03;;;;;;;19.67;8.88;;;;;;;;;;2087692;28;20207;-62
2024/01/30 08:56:05;;;;;;;15.77;8.75;;;;;;;;;;2087414;28;20223;-62
2024/01/30 08:57:07;;;;;;;16.08;9.32;;;;;;;;;;2087870;28;20196;-62
2024/01/30 08:58:08;;;;;;;21.35;8.95;;;;;;;;;;2088204;28;20884;-61
2024/01/30 08:59:10;;;;;;;17.20;9.00;;;;;;;;;;2090009;28;20200;-61
2024/01/30 09:00:14;;;;;;;17.83;8.85;;;;;;;;;;2084816;28;20196;-61
2024/01/30 09:01:15;;;;;;;14.57;8.93;;;;;;;;;;2085121;28;20204;-62
2024/01/30 09:02:18;;;;;;;16.15;8.15;;;;;;;;;;2086985;28;20201;-62
2024/01/30 09:03:19;;;;;;;16.08;8.45;;;;;;;;;;2088107;28;20243;-62
2024/01/30 09:04:21;;;;;;;15.93;7.68;;;;;;;;;;2085635;28;20303;-61
2024/01/30 09:05:26;;;;;;;18.90;8.35;;;;;;;;;;2087869;28;20256;-62
2024/01/30 09:06:28;;;;;;;12.70;6.65;;;;;;;;;;2085840;28;20482;-65
2024/01/30 09:07:30;;;;;;;14.05;6.55;;;;;;;;;;2085616;28;20193;-63
2024/01/30 09:08:31;;;;;;;14.75;7.07;;;;;;;;;;2088296;28;20607;-63
2024/01/30 09:09:32;;;;;;;12.48;6.78;;;;;;;;;;2081803;28;20267;-63
2024/01/30 09:10:34;;;;;;;13.80;6.22;;;;;;;;;;2081134;28;20675;-63
2024/01/30 09:11:35;;;;;;;13.48;6.35;;;;;;;;;;2081037;28;20196;-63
2024/01/30 09:12:37;;;;;;;13.13;5.97;;;;;;;;;;2084524;28;20193;-63
2024/01/30 09:13:39;;;;;;;9.75;5.85;;;;;;;;;;2091338;28;20193;-63
2024/01/30 09:14:41;;;;;;;12.38;7.28;;;;;;;;;;2089087;28;20555;-63
2024/01/30 09:15:42;;;;;;;15.18;7.82;;;;;;;;;;2083372;28;20658;-64
2024/01/30 09:16:44;;;;;;;20.45;6.97;;;;;;;;;;2087980;28;20196;-63
2024/01/30 09:17:45;;;;;;;11.82;8.00;;;;;;;;;;2085463;28;20224;-63
2024/01/30 09:18:46;;;;;;;12.70;6.97;;;;;;;;;;2083398;28;20197;-64
2024/01/30 09:19:48;;;;;;;12.70;7.85;;;;;;;;;;2085301;28;20194;-63
2024/01/30 09:20:49;;;;;;;11.77;6.75;;;;;;;;;;2084816;28;20197;-63
2024/01/30 09:21:51;;;;;;;16.88;7.55;;;;;;;;;;2084703;28;20192;-64
2024/01/30 09:22:52;;;;;;;14.30;8.00;;;;;;;;;;2087336;28;20604;-64
2024/01/30 09:23:54;;;;;;;16.67;7.90;;;;;;;;;;2088572;28;20255;-63
2024/01/30 09:24:55;;;;;;;13.90;7.15;;;;;;;;;;2088482;28;20188;-63
2024/01/30 09:25:57;;;;;;;14.43;7.47;;;;;;;;;;2089224;28;20200;-63
2024/01/30 09:26:58;;;;;;;15.07;8.02;;;;;;;;;;2087999;28;20216;-63
2024/01/30 09:27:59;;;;;;;15.95;7.47;;;;;;;;;;2088117;28;20290;-64
2024/01/30 09:29:01;;;;;;;12.18;7.00;;;;;;;;;;2087159;28;20287;-63
2024/01/30 09:30:03;;;;;;;10.20;6.65;;;;;;;;;;2086858;28;20713;-64
2024/01/30 09:31:09;;;;;;;12.48;6.93;;;;;;;;;;2087026;28;20200;-63
2024/01/30 09:32:10;;;;;;;13.70;6.72;;;;;;;;;;2085197;28;20781;-63
2024/01/30 09:33:11;;;;;;;15.85;6.35;;;;;;;;;;2089026;28;20584;-63
2024/01/30 09:34:13;;;;;;;12.43;6.57;;;;;;;;;;2090184;28;20204;-63
2024/01/30 09:35:15;;;;;;;14.20;7.43;;;;;;;;;;2086736;28;20232;-63
2024/01/30 09:36:18;;;;;;;12.95;7.10;;;;;;;;;;2084685;28;20230;-63
2024/01/30 09:37:20;;;;;;;18.45;6.20;;;;;;;;;;2080398;28;20308;-63
2024/01/30 09:38:24;;;;;;;12.63;6.60;;;;;;;;;;2076202;28;20221;-63
2024/01/30 09:39:25;;;;;;;12.20;6.78;;;;;;;;;;2075498;28;20197;-63
2024/01/30 09:40:27;;;;;;;10.60;6.50;;;;;;;;;;2073650;28;20660;-63
2024/01/30 09:41:30;;;;;;;12.30;6.15;;;;;;;;;;2073925;28;20198;-64
2024/01/30 09:42:34;;;;;;;17.73;7.10;;;;;;;;;;2071015;28;20236;-63
2024/01/30 09:43:37;;;;;;;14.40;6.53;;;;;;;;;;2072456;28;20202;-63
2024/01/30 09:44:42;;;;;;;12.40;6.70;;;;;;;;;;2076877;28;20508;-63
2024/01/30 09:45:44;;;;;;;13.20;5.93;;;;;;;;;;2074485;28;20609;-64
2024/01/30 09:46:48;;;;;;;14.27;6.32;;;;;;;;;;2076958;28;20379;-63
2024/01/30 09:47:49;;;;;;;12.55;6.68;;;;;;;;;;2075626;28;20442;-63
2024/01/30 09:48:51;;;;;;;22.17;6.95;;;;;;;;;;2074105;28;20229;-64
2024/01/30 09:49:53;;;;;;;12.02;6.80;;;;;;;;;;2070878;28;20190;-63
2024/01/30 09:50:56;;;;;;;13.35;6.50;;;;;;;;;;2075583;28;20205;-63
2024/01/30 09:51:58;;;;;;;14.43;6.82;;;;;;;;;;2071858;28;20247;-64
2024/01/30 09:52:59;;;;;;;15.70;6.57;;;;;;;;;;2072739;28;20218;-63
2024/01/30 09:54:02;;;;;;;11.38;6.22;;;;;;;;;;2068172;28;20308;-63
2024/01/30 09:55:04;;;;;;;15.40;6.60;;;;;;;;;;2072741;28;20645;-63
2024/01/30 09:56:06;;;;;;;11.98;6.90;;;;;;;;;;2074373;28;20197;-63
2024/01/30 09:57:08;;;;;;;11.93;7.18;;;;;;;;;;2075722;28;20193;-63
2024/01/30 09:58:09;;;;;;;16.70;6.78;;;;;;;;;;2071659;28;20205;-63
2024/01/30 09:59:11;;;;;;;11.82;6.38;;;;;;;;;;2072706;28;20225;-63
2024/01/30 10:00:12;;;;;;;16.20;7.15;;;;;;;;;;2071643;28;20252;-63
2024/01/30 10:01:18;;;;;;;12.82;5.93;;;;;;;;;;2071082;28;20202;-63
2024/01/30 10:02:20;;;;;;;15.65;7.15;;;;;;;;;;2072064;28;20233;-63
2024/01/30 10:03:21;;;;;;;18.15;8.07;;;;;;;;;;2072623;28;20224;-63
2024/01/30 10:04:23;;;;;;;24.40;9.23;;;;;;;;;;2074829;28;20625;-63
2024/01/30 10:05:26;;;;;;;20.08;8.77;;;;;;;;;;2073634;28;20201;-62
2024/01/30 10:06:29;;;;;;;16.60;8.38;;;;;;;;;;2067621;28;20194;-63
2024/01/30 10:07:30;;;;;;;14.82;7.65;;;;;;;;;;2065437;28;20757;-63
2024/01/30 10:08:33;;;;;;;14.80;7.95;;;;;;;;;;2068204;28;20201;-62
2024/01/30 10:09:34;;;;;;;17.88;7.88;;;;;;;;;;2067371;28;20205;-63
2024/01/30 10:10:36;;;;;;;17.50;8.90;;;;;;;;;;2066499;28;20190;-63
2024/01/30 10:11:38;;;;;;;19.75;9.27;;;;;;;;;;2065952;28;20190;-63
2024/01/30 10:12:39;;;;;;;16.20;8.77;;;;;;;;;;2068381;28;20272;-63
2024/01/30 10:13:40;;;;;;;14.15;8.20;;;;;;;;;;2077445;28;20204;-63
2024/01/30 10:14:42;;;;;;;14.70;7.78;;;;;;;;;;2076368;28;20232;-63
2024/01/30 10:15:44;;;;;;;12.43;6.93;;;;;;;;;;2084028;28;20193;-63
2024/01/30 10:16:46;;;;;;;17.55;9.20;;;;;;;;;;2072577;28;20205;-63
2024/01/30 10:17:47;;;;;;;15.98;8.30;;;;;;;;;;2072959;28;20229;-63
2024/01/30 10:18:49;;;;;;;16.55;7.85;;;;;;;;;;2071833;28;20272;-63
2024/01/30 10:19:51;;;;;;;16.92;6.65;;;;;;;;;;2076576;28;20226;-63
2024/01/30 10:20:53;;;;;;;21.05;9.02;;;;;;;;;;2072846;28;20212;-63
2024/01/30 10:21:54;;;;;;;13.85;7.70;;;;;;;;;;2076381;28;20205;-63
2024/01/30 10:22:56;;;;;;;25.02;9.20;;;;;;;;;;2070227;28;20234;-63
2024/01/30 10:23:57;;;;;;;24.50;12.30;;;;;;;;;;2071234;28;20908;-63
2024/01/30 10:25:00;;;;;;;22.50;12.23;;;;;;;;;;2071188;28;20259;-63
2024/01/30 10:26:07;;;;;;;19.30;8.88;;;;;;;;;;2071354;28;20224;-63
2024/01/30 10:27:09;;;;;;;19.95;10.35;;;;;;;;;;2068904;28;20289;-63
2024/01/30 10:28:10;;;;;;;37.63;15.90;;;;;;;;;;2073310;28;20214;-63
2024/01/30 10:29:11;;;;;;;36.22;15.15;;;;;;;;;;2071950;28;20202;-63
2024/01/30 10:30:14;;;;;;;66.78;23.63;;;;;;;;;;2069793;28;20191;-63
2024/01/30 10:31:18;;;;;;;70.05;28.77;;;;;;;;;;2070713;28;20194;-64
2024/01/30 10:32:20;;;;;;;64.50;26.58;;;;;;;;;;2071416;28;20205;-63
2024/01/30 10:33:22;;;;;;;48.13;21.20;;;;;;;;;;2062756;28;20816;-63
2024/01/30 10:34:23;;;;;;;46.10;21.95;;;;;;;;;;2059159;28;20409;-63
2024/01/30 10:35:25;;;;;;;59.10;23.77;;;;;;;;;;2066817;28;20206;-63
2024/01/30 10:36:28;;;;;;;33.08;16.45;;;;;;;;;;2067775;28;20235;-63
2024/01/30 10:37:31;;;;;;;38.70;16.77;;;;;;;;;;2067380;28;20201;-63
2024/01/30 10:38:32;;;;;;;33.95;15.05;;;;;;;;;;2074408;28;20197;-63
2024/01/30 10:39:37;;;;;;;36.17;15.30;;;;;;;;;;2072674;28;20717;-63
2024/01/30 10:40:38;;;;;;;32.53;16.58;;;;;;;;;;2072824;28;20194;-63
2024/01/30 10:41:44;;;;;;;39.22;17.67;;;;;;;;;;2076420;28;20194;-63
2024/01/30 10:42:45;;;;;;;37.20;17.83;;;;;;;;;;2071003;28;20214;-63
2024/01/30 10:43:53;;;;;;;54.90;27.13;;;;;;;;;;2071468;28;20198;-64
2024/01/30 10:45:08;;;;;;;72.70;32.00;;;;;;;;;;2072244;28;20209;-64
2024/01/30 10:46:16;;;;;;;52.50;25.80;;;;;;;;;;2071924;28;20197;-63
2024/01/30 10:47:21;;;;;;;38.72;20.50;;;;;;;;;;2070064;28;20292;-63
2024/01/30 10:48:24;;;;;;;43.97;23.98;;;;;;;;;;2074475;28;20233;-63
2024/01/30 10:49:27;;;;;;;39.75;21.70;;;;;;;;;;2074127;28;20193;-64
2024/01/30 10:50:30;;;;;;;35.05;19.02;;;;;;;;;;2075631;28;20193;-63
2024/01/30 10:51:32;;;;;;;34.47;18.42;;;;;;;;;;2066714;28;20593;-63
2024/01/30 10:52:34;;;;;;;42.53;18.05;;;;;;;;;;2072487;28;20285;-63
2024/01/30 10:53:35;;;;;;;34.63;17.58;;;;;;;;;;2072434;28;20203;-64
2024/01/30 10:54:37;;;;;;;35.63;16.70;;;;;;;;;;2072969;28;20260;-63
2024/01/30 10:55:39;;;;;;;28.58;16.15;;;;;;;;;;2070952;28;20244;-63
2024/01/30 10:56:41;;;;;;;32.47;16.70;;;;;;;;;;2075318;28;20198;-63
2024/01/30 10:57:42;;;;;;;41.90;15.40;;;;;;;;;;2075436;28;20443;-64
2024/01/30 10:58:44;;;;;;;37.17;15.27;;;;;;;;;;2072372;28;20193;-64
2024/01/30 10:59:46;;;;;;;29.83;14.02;;;;;;;;;;2070455;28;20202;-64
2024/01/30 11:00:49;;;;;;;33.90;13.70;;;;;;;;;;2069039;28;20198;-63
2024/01/30 11:01:50;;;;;;;29.30;14.48;;;;;;;;;;2069207;28;20194;-63
2024/01/30 11:02:52;;;;;;;24.50;13.77;;;;;;;;;;2071669;28;20221;-63
2024/01/30 11:03:54;;;;;;;25.20;12.40;;;;;;;;;;2073378;28;20860;-63
2024/01/30 11:04:59;;;;;;;28.73;14.02;;;;;;;;;;2074159;28;20340;-64
2024/01/30 11:06:02;;;;;;;27.15;14.82;;;;;;;;;;2073503;28;20227;-63
2024/01/30 11:07:14;;;;;;;30.55;15.15;;;;;;;;;;2074720;28;20271;-63
2024/01/30 11:08:22;;;;;;;28.88;13.25;;;;;;;;;;2071878;28;20229;-64
2024/01/30 11:09:23;;;;;;;28.55;14.63;;;;;;;;;;2072095;28;20226;-63
2024/01/30 11:10:25;;;;;;;35.13;18.15;;;;;;;;;;2073927;28;20189;-64
2024/01/30 11:11:26;;;;;;;29.80;16.08;;;;;;;;;;2073947;28;20615;-63
2024/01/30 11:12:28;;;;;;;30.20;14.07;;;;;;;;;;2072543;28;20289;-64
2024/01/30 11:13:29;;;;;;;34.90;12.45;;;;;;;;;;2071557;28;20685;-64
2024/01/30 11:14:31;;;;;;;23.15;12.13;;;;;;;;;;2076916;28;20201;-64
2024/01/30 11:15:37;;;;;;;23.98;10.68;;;;;;;;;;2073008;28;20217;-63
2024/01/30 11:16:39;;;;;;;18.85;10.55;;;;;;;;;;2074659;28;20833;-64
2024/01/30 11:17:53;;;;;;;21.58;11.30;;;;;;;;;;2073706;28;20594;-63
2024/01/30 11:18:59;;;;;;;23.80;11.18;;;;;;;;;;2073541;28;20247;-63
2024/01/30 11:20:02;;;;;;;23.10;10.55;;;;;;;;;;2073445;28;20722;-63
2024/01/30 11:21:04;;;;;;;20.85;10.85;;;;;;;;;;2072922;28;20229;-63
2024/01/30 11:22:08;;;;;;;21.27;11.73;;;;;;;;;;2071752;28;20197;-63
2024/01/30 11:23:13;;;;;;;21.40;11.18;;;;;;;;;;2069857;28;20221;-63
2024/01/30 11:24:15;;;;;;;23.45;11.25;;;;;;;;;;2070543;28;20199;-64
2024/01/30 11:25:17;;;;;;;19.13;9.93;;;;;;;;;;2075484;28;20258;-64
2024/01/30 11:26:23;;;;;;;19.20;9.90;;;;;;;;;;2069853;28;20248;-64
2024/01/30 11:27:26;;;;;;;25.50;10.93;;;;;;;;;;2070824;28;20298;-63
2024/01/30 11:28:33;;;;;;;18.05;9.68;;;;;;;;;;2071052;28;20208;-64
2024/01/30 11:29:34;;;;;;;22.75;9.75;;;;;;;;;;2072103;28;20192;-63
2024/01/30 11:30:36;;;;;;;21.17;10.38;;;;;;;;;;2069931;28;20716;-64
2024/01/30 11:31:37;;;;;;;18.42;9.82;;;;;;;;;;2067211;28;20232;-63
2024/01/30 11:32:39;;;;;;;19.73;9.48;;;;;;;;;;2068243;28;20205;-63
2024/01/30 11:33:40;;;;;;;19.88;10.65;;;;;;;;;;2072117;28;20245;-64
2024/01/30 11:34:42;;;;;;;16.20;9.65;;;;;;;;;;2072067;28;20190;-63
2024/01/30 11:35:44;;;;;;;15.52;9.13;;;;;;;;;;2068923;28;20234;-63
2024/01/30 11:36:52;;;;;;;15.20;8.93;;;;;;;;;;2070943;28;20267;-63
2024/01/30 11:37:54;;;;;;;14.25;8.18;;;;;;;;;;2070917;28;20435;-63
2024/01/30 11:38:56;;;;;;;18.42;9.38;;;;;;;;;;2074175;28;20193;-63
2024/01/30 11:39:58;;;;;;;15.43;8.57;;;;;;;;;;2070537;28;20236;-63
2024/01/30 11:41:00;;;;;;;16.55;9.30;;;;;;;;;;2072304;28;20251;-64
2024/01/30 11:42:04;;;;;;;25.52;9.60;;;;;;;;;;2071847;28;20247;-64
2024/01/30 11:43:07;;;;;;;17.80;9.07;;;;;;;;;;2067249;28;20333;-63
2024/01/30 11:44:09;;;;;;;18.40;9.05;;;;;;;;;;2069700;28;20301;-63
2024/01/30 11:45:11;;;;;;;22.23;10.25;;;;;;;;;;2072501;28;20205;-63
2024/01/30 11:46:12;;;;;;;22.45;11.65;;;;;;;;;;2073235;28;20330;-63
2024/01/30 11:47:14;;;;;;;17.25;10.40;;;;;;;;;;2072664;28;20182;-64
2024/01/30 11:48:15;;;;;;;19.92;11.00;;;;;;;;;;2069940;28;20210;-64
2024/01/30 11:49:17;;;;;;;29.48;13.75;;;;;;;;;;2072066;28;20206;-64
2024/01/30 11:50:19;;;;;;;19.33;12.10;;;;;;;;;;2071467;28;20222;-63
2024/01/30 11:51:21;;;;;;;32.92;12.95;;;;;;;;;;2070223;28;20233;-63
2024/01/30 11:52:22;;;;;;;23.90;12.10;;;;;;;;;;2072161;28;20208;-64
2024/01/30 11:53:23;;;;;;;24.25;8.68;;;;;;;;;;2075529;28;20705;-64
2024/01/30 11:54:25;;;;;;;19.63;10.02;;;;;;;;;;2075958;28;20190;-64
2024/01/30 11:55:26;;;;;;;23.23;7.65;;;;;;;;;;2069492;28;20210;-63
2024/01/30 11:56:33;;;;;;;18.45;8.20;;;;;;;;;;2072453;28;20255;-64
2024/01/30 11:57:38;;;;;;;25.58;10.95;;;;;;;;;;2066806;28;20201;-63
2024/01/30 11:58:42;;;;;;;15.70;9.70;;;;;;;;;;2069975;28;20260;-63
2024/01/30 11:59:43;;;;;;;20.05;9.25;;;;;;;;;;2073118;28;20665;-64
2024/01/30 12:00:53;;;;;;;21.00;11.43;;;;;;;;;;2070492;28;20708;-63
2024/01/30 12:01:54;;;;;;;23.80;10.80;;;;;;;;;;2072507;28;20469;-64
2024/01/30 12:02:56;;;;;;;17.35;11.45;;;;;;;;;;2075584;28;20261;-63
2024/01/30 12:03:59;;;;;;;19.73;10.65;;;;;;;;;;2071779;28;20281;-63
2024/01/30 12:05:03;;;;;;;24.50;12.00;;;;;;;;;;2072480;28;20194;-64
2024/01/30 12:06:06;;;;;;;23.58;11.85;;;;;;;;;;2080949;28;20221;-64
2024/01/30 12:07:07;;;;;;;27.48;11.50;;;;;;;;;;2079755;28;20205;-63
2024/01/30 12:08:14;;;;;;;22.75;12.20;;;;;;;;;;2073472;28;20304;-64
2024/01/30 12:09:17;;;;;;;25.70;12.35;;;;;;;;;;2071192;28;20197;-63
2024/01/30 12:10:19;;;;;;;28.30;14.90;;;;;;;;;;2074140;28;20202;-62
2024/01/30 12:11:20;;;;;;;25.83;14.63;;;;;;;;;;2075178;28;20198;-63
2024/01/30 12:12:23;;;;;;;31.10;14.75;;;;;;;;;;2074743;28;20213;-63
2024/01/30 12:13:25;;;;;;;29.50;15.70;;;;;;;;;;2071735;28;20290;-63
2024/01/30 12:14:30;;;;;;;28.70;14.63;;;;;;;;;;2069477;28;20201;-63
2024/01/30 12:15:31;;;;;;;29.25;14.82;;;;;;;;;;2069604;28;20236;-63
2024/01/30 12:16:33;;;;;;;21.80;11.85;;;;;;;;;;2070453;28;20195;-63
2024/01/30 12:17:34;;;;;;;24.10;10.70;;;;;;;;;;2058264;28;20205;-63
2024/01/30 12:18:36;;;;;;;27.48;13.75;;;;;;;;;;2071782;28;20218;-63
2024/01/30 12:19:37;;;;;;;25.25;14.45;;;;;;;;;;2076496;28;20818;-63
2024/01/30 12:20:39;;;;;;;26.83;12.70;;;;;;;;;;2077128;28;20434;-63
2024/01/30 12:21:40;;;;;;;19.48;10.70;;;;;;;;;;2075510;28;20193;-63
2024/01/30 12:22:45;;;;;;;28.73;13.65;;;;;;;;;;2073529;28;20190;-65
2024/01/30 12:23:46;;;;;;;22.98;14.13;;;;;;;;;;2075082;28;20235;-64
2024/01/30 12:24:49;;;;;;;29.92;13.15;;;;;;;;;;2074311;28;20198;-65
2024/01/30 12:25:51;;;;;;;21.30;12.13;;;;;;;;;;2072250;28;20251;-64
2024/01/30 12:26:56;;;;;;;20.10;11.30;;;;;;;;;;2070636;28;20196;-64
2024/01/30 12:27:57;;;;;;;21.00;12.00;;;;;;;;;;2071150;28;20218;-64
2024/01/30 12:29:01;;;;;;;21.48;12.48;;;;;;;;;;2076072;28;20189;-64
2024/01/30 12:30:09;;;;;;;25.10;12.27;;;;;;;;;;2068427;28;20847;-64
2024/01/30 12:31:11;;;;;;;21.20;11.32;;;;;;;;;;2067065;28;20249;-65
2024/01/30 12:32:16;;;;;;;17.80;10.88;;;;;;;;;;2071678;28;20202;-64
2024/01/30 12:33:18;;;;;;;19.25;10.82;;;;;;;;;;2071628;28;20499;-64
2024/01/30 12:34:20;;;;;;;26.30;10.57;;;;;;;;;;2075667;28;20205;-64
2024/01/30 12:35:23;;;;;;;24.95;11.55;;;;;;;;;;2073237;28;20197;-64
2024/01/30 12:36:25;;;;;;;19.45;11.23;;;;;;;;;;2072923;28;20263;-64
2024/01/30 12:37:26;;;;;;;24.83;12.02;;;;;;;;;;2071854;28;20205;-64
2024/01/30 12:38:28;;;;;;;22.13;12.05;;;;;;;;;;2072966;28;20232;-65
2024/01/30 12:39:30;;;;;;;17.45;11.63;;;;;;;;;;2074806;28;20216;-64
2024/01/30 12:40:33;;;;;;;21.13;11.73;;;;;;;;;;2076332;28;20698;-64
2024/01/30 12:41:35;;;;;;;19.15;11.02;;;;;;;;;;2073752;28;20198;-65
2024/01/30 12:42:36;;;;;;;19.67;11.15;;;;;;;;;;2072636;28;20217;-64
2024/01/30 12:43:38;;;;;;;17.00;9.40;;;;;;;;;;2070464;28;20288;-64
2024/01/30 12:44:40;;;;;;;18.00;10.05;;;;;;;;;;2069866;28;20202;-64
2024/01/30 12:45:41;;;;;;;19.38;8.90;;;;;;;;;;2072279;28;20284;-65
2024/01/30 12:46:43;;;;;;;13.45;7.10;;;;;;;;;;2071752;28;20200;-65
2024/01/30 12:47:47;;;;;;;15.90;4.80;;;;;;;;;;2069303;28;20250;-67
2024/01/30 12:48:48;;;;;;;12.57;7.07;;;;;;;;;;2072989;28;20661;-67
2024/01/30 12:49:53;;;;;;;11.52;5.82;;;;;;;;;;2072842;28;20205;-67
2024/01/30 12:50:55;;;;;;;18.13;6.03;;;;;;;;;;2072700;28;20285;-67
2024/01/30 12:51:56;;;;;;;13.23;4.55;;;;;;;;;;2070608;28;20201;-67
2024/01/30 12:52:58;;;;;;;9.73;3.72;;;;;;;;;;2067897;28;20249;-67
2024/01/30 12:54:03;;;;;;;8.27;5.15;;;;;;;;;;2070696;28;20285;-67
2024/01/30 12:55:05;;;;;;;6.57;4.15;;;;;;;;;;2070628;28;20244;-67
2024/01/30 12:56:06;;;;;;;7.97;3.38;;;;;;;;;;2070880;28;20205;-67
2024/01/30 12:57:08;;;;;;;6.03;3.28;;;;;;;;;;2069018;28;20214;-67
2024/01/30 12:58:09;;;;;;;11.07;4.10;;;;;;;;;;2067103;28;20225;-67
2024/01/30 12:59:10;;;;;;;8.35;4.32;;;;;;;;;;2066729;28;20237;-67
2024/01/30 13:00:12;;;;;;;7.43;3.90;;;;;;;;;;2071885;28;20332;-67
2024/01/30 13:01:13;;;;;;;9.27;4.32;;;;;;;;;;2077278;28;20225;-68
2024/01/30 13:02:15;;;;;;;6.32;4.18;;;;;;;;;;2074000;28;20193;-67
2024/01/30 13:03:16;;;;;;;7.88;4.18;;;;;;;;;;2071704;28;20959;-67
2024/01/30 13:04:17;;;;;;;6.13;3.80;;;;;;;;;;2072257;28;20248;-67
2024/01/30 13:05:19;;;;;;;8.82;3.58;;;;;;;;;;2074222;28;20342;-67
2024/01/30 13:06:21;;;;;;;10.15;3.50;;;;;;;;;;2072506;28;20214;-68
2024/01/30 13:07:22;;;;;;;5.82;3.50;;;;;;;;;;2064268;28;20203;-67
2024/01/30 13:08:24;;;;;;;5.18;2.65;;;;;;;;;;2073584;28;20756;-67
2024/01/30 13:09:25;;;;;;;6.35;3.63;;;;;;;;;;2072684;28;20197;-67
2024/01/30 13:10:27;;;;;;;8.00;3.40;;;;;;;;;;2070809;28;20281;-65
2024/01/30 13:11:28;;;;;;;12.35;3.95;;;;;;;;;;2074492;28;20205;-67
2024/01/30 13:12:32;;;;;;;7.05;3.40;;;;;;;;;;2072276;28;20239;-66
2024/01/30 13:13:33;;;;;;;7.10;3.15;;;;;;;;;;2083638;28;20236;-67
2024/01/30 13:14:34;;;;;;;5.35;2.75;;;;;;;;;;2074407;28;20221;-67
2024/01/30 13:15:36;;;;;;;5.28;2.90;;;;;;;;;;2075376;28;20272;-67
2024/01/30 13:16:37;;;;;;;8.27;3.95;;;;;;;;;;2076342;28;20245;-67
2024/01/30 13:17:39;;;;;;;8.02;3.25;;;;;;;;;;2073504;28;20201;-66
2024/01/30 13:18:41;;;;;;;6.40;2.90;;;;;;;;;;2070882;28;20723;-66
2024/01/30 13:19:42;;;;;;;7.82;3.92;;;;;;;;;;2075488;28;20247;-66
2024/01/30 13:20:43;;;;;;;11.10;4.22;;;;;;;;;;2075169;28;20495;-67
2024/01/30 13:21:46;;;;;;;7.75;3.55;;;;;;;;;;2073313;28;20194;-66
2024/01/30 13:22:49;;;;;;;9.27;3.92;;;;;;;;;;2069708;28;20233;-66
2024/01/30 13:23:53;;;;;;;6.00;3.38;;;;;;;;;;2063877;28;20238;-66
2024/01/30 13:24:55;;;;;;;8.98;3.45;;;;;;;;;;2065868;28;20654;-66
2024/01/30 13:25:58;;;;;;;11.60;3.03;;;;;;;;;;2073778;28;20240;-66
2024/01/30 13:26:59;;;;;;;6.53;3.30;;;;;;;;;;2070128;28;20194;-66
2024/01/30 13:28:01;;;;;;;7.10;3.30;;;;;;;;;;2074066;28;20226;-66
2024/01/30 13:29:03;;;;;;;7.88;3.22;;;;;;;;;;2071928;28;20194;-66
2024/01/30 13:30:05;;;;;;;6.35;3.15;;;;;;;;;;2072790;28;20189;-66
2024/01/30 13:31:06;;;;;;;4.10;2.08;;;;;;;;;;2074104;28;20198;-66
2024/01/30 13:32:08;;;;;;;12.90;2.92;;;;;;;;;;2072237;28;20340;-66
2024/01/30 13:33:09;;;;;;;7.10;2.67;;;;;;;;;;2073342;28;20221;-66
2024/01/30 13:34:10;;;;;;;9.50;3.10;;;;;;;;;;2073295;28;20201;-66
2024/01/30 13:35:12;;;;;;;8.75;3.15;;;;;;;;;;2074666;28;20723;-66
2024/01/30 13:36:14;;;;;;;6.57;3.10;;;;;;;;;;2074083;28;20218;-66
2024/01/30 13:37:16;;;;;;;6.03;2.88;;;;;;;;;;2074742;28;20229;-66
2024/01/30 13:38:17;;;;;;;7.97;3.13;;;;;;;;;;2073577;28;20544;-66
2024/01/30 13:39:19;;;;;;;8.57;2.90;;;;;;;;;;2074193;28;20198;-66
2024/01/30 13:40:23;;;;;;;8.50;2.95;;;;;;;;;;2076399;28;20251;-66
2024/01/30 13:41:24;;;;;;;4.88;2.30;;;;;;;;;;2071171;28;20663;-66
2024/01/30 13:42:26;;;;;;;10.52;2.53;;;;;;;;;;2067756;28;20798;-66
2024/01/30 13:43:27;;;;;;;3.83;2.20;;;;;;;;;;2068381;28;20225;-66
2024/01/30 13:44:29;;;;;;;5.75;2.90;;;;;;;;;;2070837;28;20647;-66
2024/01/30 13:45:30;;;;;;;7.68;2.88;;;;;;;;;;2070729;28;20205;-68
2024/01/30 13:46:31;;;;;;;6.45;3.25;;;;;;;;;;2069961;28;20569;-66
2024/01/30 13:47:33;;;;;;;5.70;3.10;;;;;;;;;;2067999;28;20754;-66
2024/01/30 13:48:34;;;;;;;11.73;3.28;;;;;;;;;;2071859;28;20633;-66
2024/01/30 13:49:36;;;;;;;7.25;3.00;;;;;;;;;;2073130;28;20278;-66
2024/01/30 13:50:37;;;;;;;5.88;3.00;;;;;;;;;;2073925;28;20906;-66
2024/01/30 13:51:38;;;;;;;7.18;2.90;;;;;;;;;;2075663;28;20200;-66
2024/01/30 13:52:40;;;;;;;4.18;2.42;;;;;;;;;;2073396;28;20214;-66
2024/01/30 13:53:46;;;;;;;6.00;2.58;;;;;;;;;;2073630;28;20208;-66
2024/01/30 13:54:47;;;;;;;6.15;2.70;;;;;;;;;;2070984;28;20194;-66
2024/01/30 13:55:48;;;;;;;4.63;2.38;;;;;;;;;;2072562;28;20190;-66
2024/01/30 13:56:50;;;;;;;8.90;3.30;;;;;;;;;;2071153;28;20209;-66
2024/01/30 13:57:51;;;;;;;5.90;3.00;;;;;;;;;;2068801;28;20245;-66
2024/01/30 13:58:53;;;;;;;8.48;2.83;;;;;;;;;;2072980;28;20237;-66
2024/01/30 13:59:54;;;;;;;6.95;2.10;;;;;;;;;;2073566;28;20197;-66
2024/01/30 14:00:55;;;;;;;5.28;2.83;;;;;;;;;;2074207;28;20601;-66